createdAt,value
2022-10-08T00:00:12.219Z,61.47
2022-10-08T00:02:41.067Z,63.15
2022-10-08T00:05:10.665Z,64.47
2022-10-08T00:07:40.007Z,62.20
2022-10-08T00:10:09.581Z,62.40
2022-10-08T00:12:38.183Z,59.03
2022-10-08T00:15:07.740Z,63.00
2022-10-08T00:17:36.858Z,62.47
2022-10-08T00:20:06.937Z,59.88
2022-10-08T00:22:35.922Z,59.85
2022-10-08T00:25:04.971Z,58.15
2022-10-08T00:27:35.738Z,51.90
2022-10-08T00:30:08.403Z,53.42
2022-10-08T00:32:37.481Z,53.67
2022-10-08T00:35:06.545Z,50.35
2022-10-08T00:37:35.521Z,50.40
2022-10-08T00:40:04.739Z,48.10
2022-10-08T00:42:33.715Z,47.20
2022-10-08T00:45:03.555Z,44.90
2022-10-08T00:47:37.973Z,47.10
2022-10-08T00:50:07.240Z,45.83
2022-10-08T00:52:40.580Z,45.78
2022-10-08T00:55:13.677Z,46.83
2022-10-08T00:57:45.138Z,49.67
2022-10-08T01:00:25.639Z,46.77
2022-10-08T01:02:56.706Z,46.60
2022-10-08T01:05:44.547Z,49.80
2022-10-08T01:08:40.088Z,51.08
2022-10-08T01:11:17.293Z,91.88
2022-10-08T01:14:06.036Z,54.53
2022-10-08T01:16:57.019Z,47.08
2022-10-08T01:19:41.013Z,50.85
2022-10-08T01:22:54.432Z,46.63
2022-10-08T01:25:39.029Z,46.80
2022-10-08T01:28:41.852Z,45.92
2022-10-08T01:31:32.070Z,46.28
2022-10-08T01:34:25.535Z,44.28
2022-10-08T01:36:56.745Z,44.10
2022-10-08T01:39:32.955Z,43.80
2022-10-08T01:42:06.643Z,39.97
2022-10-08T01:44:43.580Z,41.20
2022-10-08T01:47:17.705Z,43.20
2022-10-08T01:49:57.865Z,44.28
2022-10-08T01:52:34.226Z,45.78
2022-10-08T01:55:10.272Z,51.85
2022-10-08T01:57:42.030Z,55.58
2022-10-08T02:00:14.757Z,56.47
2022-10-08T02:02:45.527Z,53.63
2022-10-08T02:05:15.320Z,47.65
2022-10-08T02:07:44.865Z,49.03
2022-10-08T02:10:25.167Z,49.30
2022-10-08T02:12:54.727Z,51.25
2022-10-08T02:15:45.671Z,50.80
2022-10-08T02:18:15.146Z,55.78
2022-10-08T02:21:04.967Z,62.40
2022-10-08T02:23:44.606Z,55.78
2022-10-08T02:26:21.411Z,52.28
2022-10-08T02:29:02.836Z,55.05
2022-10-08T02:31:50.447Z,48.63
2022-10-08T02:34:25.196Z,50.20
2022-10-08T02:37:19.426Z,48.28
2022-10-08T02:40:11.695Z,53.63
2022-10-08T02:42:48.285Z,48.80
2022-10-08T02:45:30.020Z,47.17
2022-10-08T02:48:08.296Z,48.97
2022-10-08T02:50:41.542Z,44.50
2022-10-08T02:53:15.617Z,43.25
2022-10-08T02:56:04.238Z,43.38
2022-10-08T02:58:34.404Z,42.10
2022-10-08T03:01:16.601Z,41.25
2022-10-08T03:03:56.320Z,41.15
2022-10-08T03:06:28.837Z,42.97
2022-10-08T03:11:32.256Z,43.22
2022-10-08T03:14:05.716Z,43.05
2022-10-08T03:16:46.959Z,40.55
2022-10-08T03:19:19.509Z,40.40
2022-10-08T03:21:53.961Z,40.22
2022-10-08T03:24:41.734Z,42.15
2022-10-08T03:27:15.256Z,42.08
2022-10-08T03:29:44.973Z,41.55
2022-10-08T03:32:14.414Z,45.90
2022-10-08T03:34:43.607Z,43.92
2022-10-08T03:37:12.863Z,42.97
2022-10-08T03:39:44.271Z,43.45
2022-10-08T03:42:14.495Z,46.78
2022-10-08T03:44:44.340Z,43.20
2022-10-08T03:47:13.469Z,41.85
2022-10-08T03:49:42.513Z,42.97
2022-10-08T03:52:12.322Z,43.55
2022-10-08T03:54:41.582Z,43.67
2022-10-08T03:57:11.146Z,42.30
2022-10-08T03:59:41.168Z,41.97
2022-10-08T04:02:10.690Z,39.33
2022-10-08T04:04:40.137Z,38.47
2022-10-08T04:07:09.483Z,39.25
2022-10-08T04:09:38.968Z,39.70
2022-10-08T04:12:08.207Z,40.63
2022-10-08T04:14:37.935Z,43.78
2022-10-08T04:17:07.378Z,37.78
2022-10-08T04:19:36.173Z,40.67
2022-10-08T04:22:05.596Z,39.80
2022-10-08T04:24:34.452Z,47.33
2022-10-08T04:27:03.510Z,50.58
2022-10-08T04:29:32.866Z,53.53
2022-10-08T04:32:02.549Z,49.75
2022-10-08T04:34:31.757Z,47.17
2022-10-08T04:37:01.299Z,44.38
2022-10-08T04:39:30.258Z,48.53
2022-10-08T04:41:59.949Z,41.88
2022-10-08T04:44:29.505Z,42.28
2022-10-08T04:46:59.123Z,44.03
2022-10-08T04:49:29.814Z,43.08
2022-10-08T04:51:59.103Z,49.45
2022-10-08T04:54:28.368Z,50.05
2022-10-08T04:56:57.703Z,50.30
2022-10-08T04:59:27.233Z,52.72
2022-10-08T05:02:00.719Z,49.92
2022-10-08T05:04:30.735Z,48.70
2022-10-08T05:06:59.947Z,46.80
2022-10-08T05:09:29.192Z,45.92
2022-10-08T05:11:58.094Z,46.92
2022-10-08T05:14:27.292Z,54.28
2022-10-08T05:16:56.440Z,55.70
2022-10-08T05:19:25.422Z,57.60
2022-10-08T05:21:56.990Z,56.00
2022-10-08T05:24:26.220Z,53.83
2022-10-08T05:26:58.490Z,55.80
2022-10-08T05:29:32.443Z,51.53
2022-10-08T05:32:01.369Z,53.50
2022-10-08T05:34:30.263Z,45.83
2022-10-08T05:36:59.307Z,45.97
2022-10-08T05:39:28.264Z,43.47
2022-10-08T05:41:57.224Z,43.92
2022-10-08T05:44:26.128Z,43.88
2022-10-08T05:46:55.177Z,40.38
2022-10-08T05:49:25.056Z,41.83
2022-10-08T05:51:54.108Z,39.97
2022-10-08T05:54:22.995Z,39.97
2022-10-08T05:56:52.155Z,35.22
2022-10-08T05:59:23.839Z,34.25
2022-10-08T06:01:53.437Z,35.33
2022-10-08T06:04:22.477Z,39.15
2022-10-08T06:06:51.674Z,35.28
2022-10-08T06:09:22.244Z,34.05
2022-10-08T06:11:51.582Z,35.25
2022-10-08T06:14:25.264Z,36.95
2022-10-08T06:16:54.939Z,35.88
2022-10-08T06:19:23.954Z,37.30
2022-10-08T06:21:52.941Z,36.58
2022-10-08T06:24:24.626Z,35.38
2022-10-08T06:26:53.510Z,32.63
2022-10-08T06:29:23.349Z,33.78
2022-10-08T06:31:54.271Z,36.25
2022-10-08T06:34:23.906Z,35.42
2022-10-08T06:36:52.746Z,36.88
2022-10-08T06:39:21.911Z,36.15
2022-10-08T06:41:50.793Z,36.03
2022-10-08T06:44:20.247Z,36.33
2022-10-08T06:46:49.335Z,36.25
2022-10-08T06:49:19.304Z,35.95
2022-10-08T06:51:48.207Z,36.15
2022-10-08T06:54:17.013Z,35.40
2022-10-08T06:56:45.632Z,35.65
2022-10-08T06:59:14.690Z,35.53
2022-10-08T07:01:43.793Z,35.33
2022-10-08T07:04:13.349Z,35.33
2022-10-08T07:06:42.319Z,36.83
2022-10-08T07:09:12.032Z,37.63
2022-10-08T07:11:41.208Z,37.35
2022-10-08T07:14:10.303Z,36.13
2022-10-08T07:16:39.174Z,35.45
2022-10-08T07:19:08.199Z,36.20
2022-10-08T07:21:36.849Z,35.38
2022-10-08T07:24:06.506Z,35.58
2022-10-08T07:26:35.942Z,34.33
2022-10-08T07:29:09.618Z,35.00
2022-10-08T07:31:39.530Z,33.50
2022-10-08T07:34:12.222Z,33.78
2022-10-08T07:36:41.951Z,32.28
2022-10-08T07:39:15.329Z,33.72
2022-10-08T07:41:44.638Z,33.72
2022-10-08T07:44:14.575Z,36.15
2022-10-08T07:46:46.428Z,35.22
2022-10-08T07:49:16.503Z,33.67
2022-10-08T07:51:46.430Z,34.03
2022-10-08T07:54:18.896Z,35.65
2022-10-08T07:56:48.386Z,34.58
2022-10-08T07:59:17.203Z,31.92
2022-10-08T08:01:46.569Z,33.53
2022-10-08T08:04:16.085Z,30.48
2022-10-08T08:06:49.122Z,32.55
2022-10-08T08:09:19.440Z,33.08
2022-10-08T08:11:50.127Z,30.75
2022-10-08T08:14:20.842Z,32.00
2022-10-08T08:16:49.880Z,34.17
2022-10-08T08:19:18.498Z,34.00
2022-10-08T08:21:47.655Z,33.08
2022-10-08T08:24:17.507Z,28.00
2022-10-08T08:26:46.689Z,30.42
2022-10-08T08:29:17.989Z,31.88
2022-10-08T08:31:49.321Z,34.47
2022-10-08T08:34:20.992Z,34.08
2022-10-08T08:36:51.795Z,34.77
2022-10-08T08:39:29.075Z,34.85
2022-10-08T08:42:28.957Z,33.13
2022-10-08T08:45:22.891Z,34.70
2022-10-08T08:48:24.908Z,28.75
2022-10-08T08:50:58.037Z,27.08
2022-10-08T08:53:27.777Z,31.42
2022-10-08T08:56:00.121Z,28.02
2022-10-08T08:58:36.811Z,25.17
2022-10-08T09:01:29.750Z,27.50
2022-10-08T09:04:06.206Z,29.90
2022-10-08T09:06:37.244Z,28.33
2022-10-08T09:09:24.120Z,28.73
2022-10-08T09:11:53.162Z,30.30
2022-10-08T09:14:37.279Z,28.02
2022-10-08T09:17:20.026Z,28.50
2022-10-08T09:19:50.801Z,29.98
2022-10-08T09:22:42.959Z,28.58
2022-10-08T09:25:19.458Z,29.00
2022-10-08T09:27:53.053Z,31.55
2022-10-08T09:30:43.034Z,27.60
2022-10-08T09:33:26.593Z,29.13
2022-10-08T09:35:56.050Z,26.08
2022-10-08T09:38:27.518Z,28.02
2022-10-08T09:41:02.274Z,28.58
2022-10-08T09:43:33.088Z,25.67
2022-10-08T09:46:05.701Z,26.80
2022-10-08T09:48:34.865Z,27.90
2022-10-08T09:51:13.674Z,27.52
2022-10-08T09:53:53.109Z,28.52
2022-10-08T09:56:29.205Z,25.58
2022-10-08T09:59:02.134Z,26.58
2022-10-08T10:01:35.243Z,24.70
2022-10-08T10:04:05.378Z,27.23
2022-10-08T10:06:39.812Z,27.52
2022-10-08T10:09:35.749Z,29.08
2022-10-08T10:12:33.451Z,29.65
2022-10-08T10:15:29.776Z,26.40
2022-10-08T10:18:22.153Z,26.55
2022-10-08T10:21:00.489Z,28.70
2022-10-08T10:24:09.734Z,27.70
2022-10-08T10:26:43.414Z,26.08
2022-10-08T10:29:21.956Z,27.10
2022-10-08T10:32:21.325Z,26.45
2022-10-08T10:35:01.939Z,25.80
2022-10-08T10:37:49.575Z,28.25
2022-10-08T10:40:38.679Z,30.08
2022-10-08T10:43:29.014Z,29.98
2022-10-08T10:46:13.216Z,31.27
2022-10-08T10:48:42.481Z,29.45
2022-10-08T10:51:16.968Z,30.40
2022-10-08T10:54:07.326Z,32.70
2022-10-08T10:56:46.132Z,29.50
2022-10-08T10:59:46.185Z,29.52
2022-10-08T11:02:48.702Z,31.98
2022-10-08T11:05:24.167Z,29.65
2022-10-08T11:08:05.036Z,31.73
2022-10-08T11:11:00.219Z,30.08
2022-10-08T11:13:45.465Z,28.20
2022-10-08T11:16:37.210Z,32.58
2022-10-08T11:19:11.888Z,33.00
2022-10-08T11:22:04.545Z,31.85
2022-10-08T11:27:26.910Z,33.85
2022-10-08T11:30:01.905Z,33.13
2022-10-08T11:32:33.482Z,34.90
2022-10-08T11:35:23.792Z,33.95
2022-10-08T11:38:21.689Z,35.17
2022-10-08T11:41:00.736Z,36.17
2022-10-08T11:43:44.435Z,36.28
2022-10-08T11:46:31.011Z,35.40
2022-10-08T11:49:24.003Z,36.70
2022-10-08T11:51:54.739Z,35.17
2022-10-08T11:54:39.560Z,35.30
2022-10-08T11:58:02.996Z,35.05
2022-10-08T12:00:34.347Z,35.03
2022-10-08T12:03:06.777Z,35.83
2022-10-08T12:05:49.437Z,35.60
2022-10-08T12:08:56.704Z,34.40
2022-10-08T12:11:43.586Z,36.53
2022-10-08T12:14:22.138Z,34.63
2022-10-08T12:16:59.927Z,37.08
2022-10-08T12:19:35.868Z,38.50
2022-10-08T12:22:06.587Z,39.30
2022-10-08T12:24:56.832Z,42.65
2022-10-08T12:27:35.013Z,38.55
2022-10-08T12:30:08.815Z,41.20
2022-10-08T12:32:43.894Z,43.88
2022-10-08T12:35:33.103Z,46.00
2022-10-08T12:38:24.209Z,65.55
2022-10-08T12:41:04.497Z,68.32
2022-10-08T12:44:09.739Z,64.40
2022-10-08T12:47:01.206Z,65.25
2022-10-08T12:49:53.375Z,70.35
2022-10-08T12:52:23.828Z,53.95
2022-10-08T12:54:59.770Z,48.55
2022-10-08T12:57:34.681Z,44.00
2022-10-08T13:00:26.691Z,44.33
2022-10-08T13:03:08.436Z,41.83
2022-10-08T13:05:41.090Z,40.05
2022-10-08T13:08:36.942Z,37.33
2022-10-08T13:11:17.260Z,36.05
2022-10-08T13:13:51.945Z,36.08
2022-10-08T13:16:22.958Z,35.90
2022-10-08T13:18:59.654Z,37.67
2022-10-08T13:21:36.938Z,38.35
2022-10-08T13:24:15.385Z,40.13
2022-10-08T13:26:51.548Z,40.80
2022-10-08T13:29:23.673Z,38.55
2022-10-08T13:32:13.002Z,37.33
2022-10-08T13:34:42.229Z,38.63
2022-10-08T13:37:30.152Z,37.78
2022-10-08T13:40:02.329Z,37.85
2022-10-08T13:42:45.491Z,41.00
2022-10-08T13:45:26.774Z,42.05
2022-10-08T13:47:56.594Z,41.25
2022-10-08T13:50:26.014Z,39.85
2022-10-08T13:53:01.375Z,39.25
2022-10-08T13:55:40.065Z,36.00
2022-10-08T13:58:15.318Z,36.70
2022-10-08T14:00:46.293Z,37.92
2022-10-08T14:03:16.379Z,39.83
2022-10-08T14:05:47.543Z,38.17
2022-10-08T14:08:27.440Z,38.75
2022-10-08T14:10:59.473Z,41.20
2022-10-08T14:13:30.861Z,37.05
2022-10-08T14:16:00.189Z,36.15
2022-10-08T14:18:29.160Z,36.90
2022-10-08T14:21:00.729Z,34.80
2022-10-08T14:23:30.310Z,32.70
2022-10-08T14:25:59.590Z,31.00
2022-10-08T14:28:28.889Z,31.63
2022-10-08T14:30:59.114Z,31.48
2022-10-08T14:33:28.265Z,29.40
2022-10-08T14:35:57.284Z,30.80
2022-10-08T14:38:26.392Z,30.45
2022-10-08T14:40:55.458Z,31.80
2022-10-08T14:43:27.636Z,30.80
2022-10-08T14:48:26.351Z,30.65
2022-10-08T14:50:58.934Z,28.40
2022-10-08T14:53:28.154Z,30.30
2022-10-08T14:56:11.616Z,28.70
2022-10-08T14:58:41.903Z,26.50
2022-10-08T15:01:11.880Z,27.70
2022-10-08T15:03:41.397Z,26.38
2022-10-08T15:06:12.950Z,26.35
2022-10-08T15:08:41.804Z,26.20
2022-10-08T15:11:11.301Z,27.65
2022-10-08T15:13:40.906Z,26.40
2022-10-08T15:16:14.405Z,27.92
2022-10-08T15:18:45.564Z,28.45
2022-10-08T15:23:44.686Z,26.85
2022-10-08T15:26:16.542Z,26.42
2022-10-08T15:28:47.198Z,25.15
2022-10-08T15:31:19.288Z,27.05
2022-10-08T15:33:51.427Z,26.30
2022-10-08T15:36:35.823Z,24.25
2022-10-08T15:39:16.015Z,24.83
2022-10-08T15:41:55.558Z,25.20
2022-10-08T15:44:27.393Z,26.80
2022-10-08T15:47:07.237Z,26.08
2022-10-08T15:49:38.920Z,24.90
2022-10-08T15:52:11.275Z,25.02
2022-10-08T15:57:11.721Z,21.35
2022-10-08T15:59:41.400Z,24.95
2022-10-08T16:02:17.561Z,22.23
2022-10-08T16:04:48.704Z,21.40
2022-10-08T16:07:18.685Z,21.38
2022-10-08T16:09:49.534Z,21.30
2022-10-08T16:12:23.924Z,21.75
2022-10-08T16:14:53.677Z,20.48
2022-10-08T16:17:27.823Z,20.95
2022-10-08T16:19:57.417Z,20.60
2022-10-08T16:22:26.501Z,20.10
2022-10-08T16:24:56.089Z,20.52
2022-10-08T16:27:25.275Z,20.17
2022-10-08T16:29:55.255Z,19.15
2022-10-08T16:32:24.372Z,17.98
2022-10-08T16:34:53.701Z,19.42
2022-10-08T16:37:22.734Z,19.83
2022-10-08T16:39:51.900Z,22.20
2022-10-08T16:42:20.708Z,20.15
2022-10-08T16:44:50.595Z,21.58
2022-10-08T16:47:19.598Z,23.20
2022-10-08T16:49:48.741Z,21.65
2022-10-08T16:52:17.749Z,22.08
2022-10-08T16:54:50.206Z,21.95
2022-10-08T16:57:22.325Z,23.00
2022-10-08T16:59:51.398Z,24.13
2022-10-08T17:02:24.989Z,24.70
2022-10-08T17:04:55.311Z,25.58
2022-10-08T17:07:24.118Z,28.30
2022-10-08T17:09:54.491Z,27.50
2022-10-08T17:12:23.733Z,26.25
2022-10-08T17:14:52.674Z,26.98
2022-10-08T17:17:21.947Z,26.45
2022-10-08T17:19:51.257Z,27.25
2022-10-08T17:22:20.478Z,28.67
2022-10-08T17:24:49.437Z,27.60
2022-10-08T17:27:18.617Z,25.38
2022-10-08T17:29:47.606Z,27.35
2022-10-08T17:32:16.826Z,25.20
2022-10-08T17:34:46.004Z,25.63
2022-10-08T17:37:15.326Z,24.83
2022-10-08T17:39:44.299Z,25.60
2022-10-08T17:42:13.586Z,23.95
2022-10-08T17:44:42.541Z,23.38
2022-10-08T17:47:11.784Z,25.85
2022-10-08T17:49:40.782Z,24.95
2022-10-08T17:52:09.983Z,22.35
2022-10-08T17:54:38.914Z,23.50
2022-10-08T17:57:08.332Z,22.73
2022-10-08T17:59:37.310Z,21.67
2022-10-08T18:02:07.448Z,21.40
2022-10-08T18:04:36.792Z,22.27
2022-10-08T18:07:07.015Z,20.92
2022-10-08T18:09:36.127Z,21.17
2022-10-08T18:12:05.235Z,20.48
2022-10-08T18:14:34.439Z,20.05
2022-10-08T18:17:03.370Z,20.85
2022-10-08T18:19:32.564Z,22.77
2022-10-08T18:22:01.506Z,20.00
2022-10-08T18:24:30.620Z,20.02
2022-10-08T18:27:00.678Z,21.52
2022-10-08T18:29:30.475Z,20.40
2022-10-08T18:32:02.064Z,19.37
2022-10-08T18:34:31.173Z,18.20
2022-10-08T18:37:00.234Z,21.52
2022-10-08T18:39:29.531Z,18.30
2022-10-08T18:41:58.480Z,18.05
2022-10-08T18:44:27.913Z,16.02
2022-10-08T18:46:58.818Z,17.48
2022-10-08T18:49:31.507Z,16.10
2022-10-08T18:52:01.307Z,15.40
2022-10-08T18:54:30.729Z,14.63
2022-10-08T18:57:01.242Z,14.85
2022-10-08T18:59:32.084Z,14.98
2022-10-08T19:02:01.792Z,15.77
2022-10-08T19:04:32.296Z,14.52
2022-10-08T19:07:02.610Z,14.57
2022-10-08T19:09:32.265Z,14.95
2022-10-08T19:12:01.848Z,14.65
2022-10-08T19:14:31.000Z,14.95
2022-10-08T19:17:01.207Z,14.77
2022-10-08T19:19:32.768Z,14.50
2022-10-08T19:22:02.389Z,13.70
2022-10-08T19:24:32.092Z,14.95
2022-10-08T19:27:01.398Z,14.80
2022-10-08T19:29:34.323Z,15.18
2022-10-08T19:32:03.783Z,15.35
2022-10-08T19:34:32.917Z,15.45
2022-10-08T19:37:02.114Z,14.18
2022-10-08T19:39:32.026Z,15.88
2022-10-08T19:42:01.406Z,15.65
2022-10-08T19:44:30.327Z,15.57
2022-10-08T19:46:59.638Z,14.25
2022-10-08T19:49:28.518Z,15.25
2022-10-08T19:51:57.589Z,16.75
2022-10-08T19:54:26.573Z,17.00
2022-10-08T19:56:56.975Z,16.25
2022-10-08T19:59:26.345Z,16.33
2022-10-08T20:01:55.331Z,15.65
2022-10-08T20:04:25.010Z,17.10
2022-10-08T20:06:54.049Z,16.27
2022-10-08T20:09:23.210Z,17.67
2022-10-08T20:11:52.166Z,16.67
2022-10-08T20:14:21.354Z,17.90
2022-10-08T20:16:50.286Z,18.40
2022-10-08T20:19:23.594Z,17.63
2022-10-08T20:21:55.851Z,16.92
2022-10-08T20:26:54.015Z,17.30
2022-10-08T20:29:28.656Z,18.13
2022-10-08T20:32:00.816Z,17.05
2022-10-08T20:34:32.257Z,17.50
2022-10-08T20:37:03.265Z,18.07
2022-10-08T20:39:32.573Z,19.50
2022-10-08T20:42:01.583Z,18.05
2022-10-08T20:44:30.839Z,18.98
2022-10-08T20:47:02.630Z,18.25
2022-10-08T20:52:09.285Z,18.00
2022-10-08T20:54:39.644Z,17.95
2022-10-08T20:57:09.983Z,17.83
2022-10-08T20:59:45.120Z,18.50
2022-10-08T21:02:19.620Z,17.75
2022-10-08T21:04:49.647Z,18.30
2022-10-08T21:07:19.173Z,17.70
2022-10-08T21:09:53.445Z,18.20
2022-10-08T21:12:22.595Z,17.98
2022-10-08T21:15:03.415Z,18.27
2022-10-08T21:17:32.742Z,18.42
2022-10-08T21:20:01.788Z,18.50
2022-10-08T21:22:33.067Z,18.40
2022-10-08T21:25:06.023Z,18.92
2022-10-08T21:27:38.527Z,17.95
2022-10-08T21:30:10.889Z,18.25
2022-10-08T21:32:40.149Z,16.73
2022-10-08T21:35:10.686Z,17.25
2022-10-08T21:37:42.981Z,18.52
2022-10-08T21:40:13.027Z,19.30
2022-10-08T21:42:43.295Z,18.15
2022-10-08T21:45:12.241Z,18.30
2022-10-08T21:47:41.570Z,18.23
2022-10-08T21:50:12.009Z,19.15
2022-10-08T21:52:41.109Z,20.35
2022-10-08T21:55:10.532Z,20.48
2022-10-08T21:57:40.154Z,19.25
2022-10-08T22:00:13.421Z,20.25
2022-10-08T22:02:42.699Z,20.08
2022-10-08T22:05:11.608Z,20.45
2022-10-08T22:07:41.145Z,19.23
2022-10-08T22:10:10.300Z,20.30
2022-10-08T22:12:39.593Z,19.20
2022-10-08T22:15:09.042Z,20.25
2022-10-08T22:17:38.220Z,19.52
2022-10-08T22:20:07.442Z,20.45
2022-10-08T22:22:36.650Z,21.40
2022-10-08T22:25:05.857Z,20.00
2022-10-08T22:27:35.047Z,20.27
2022-10-08T22:30:03.959Z,20.65
2022-10-08T22:32:33.194Z,20.23
2022-10-08T22:35:02.059Z,19.75
2022-10-08T22:37:31.287Z,20.85
2022-10-08T22:40:00.335Z,22.13
2022-10-08T22:42:29.359Z,20.67
2022-10-08T22:44:58.225Z,19.30
2022-10-08T22:47:27.506Z,20.42
2022-10-08T22:49:56.457Z,19.98
2022-10-08T22:52:25.580Z,20.17
2022-10-08T22:54:54.664Z,20.95
2022-10-08T22:57:23.881Z,19.40
2022-10-08T22:59:52.782Z,21.15
2022-10-08T23:02:21.980Z,21.20
2022-10-08T23:04:50.930Z,21.45
2022-10-08T23:07:20.276Z,20.52
2022-10-08T23:09:49.202Z,19.52
2022-10-08T23:12:18.519Z,18.90
2022-10-08T23:14:47.566Z,20.42
2022-10-08T23:17:17.036Z,19.90
2022-10-08T23:19:46.071Z,20.45
2022-10-08T23:22:15.326Z,20.05
2022-10-08T23:24:44.575Z,20.27
2022-10-08T23:27:13.745Z,19.77
2022-10-08T23:29:42.698Z,20.80
2022-10-08T23:32:12.001Z,18.73
2022-10-08T23:34:41.048Z,19.63
2022-10-08T23:37:10.290Z,22.98
2022-10-08T23:39:39.252Z,19.90
2022-10-08T23:42:08.453Z,20.77
2022-10-08T23:44:37.817Z,20.00
2022-10-08T23:47:07.008Z,20.90
2022-10-08T23:49:35.807Z,20.13
2022-10-08T23:52:04.894Z,20.77
2022-10-08T23:54:33.906Z,20.40
2022-10-08T23:57:06.246Z,20.05
2022-10-08T23:59:35.441Z,20.75
